EZY371M EGGW-EGPH
Flight info
| Callsign | EZY371M |
|---|---|
| Flight time | 0h 50m |
| Altitude | 34000 |
| Route | OLNEY T420 TNT UN57 POL UN601 RIBEL DCT INPIP |
| Aircraft | A320/M-SDE2E3FGHIJ1RWXYZ/LB1 |
Departure
| Time | 2026-05-07 12:49 |
|---|---|
| Airport | London Luton Airport (EGGW) |
Arrival
| Time | 2026-05-07 13:40 |
|---|---|
| Airport | Edinburgh Airport (EGPH) |
| Time | Latitude | Longitude | Altitude | Speed | Heading |
|---|---|---|---|---|---|
| 2026-05-07 12:23 | 51.88018 | -0.37826 | 524 ft | 0 kts | 128° |
| 2026-05-07 12:40 | 51.88032 | -0.37854 | 523 ft | 4 kts | 128° |
| 2026-05-07 12:41 | 51.88045 | -0.37879 | 523 ft | 4 kts | 155° |
| 2026-05-07 12:41 | 51.88064 | -0.37876 | 523 ft | 3 kts | 218° |
| 2026-05-07 12:41 | 51.88078 | -0.37859 | 523 ft | 0 kts | 218° |
| 2026-05-07 12:44 | 51.88064 | -0.37876 | 523 ft | 5 kts | 218° |
| 2026-05-07 12:44 | 51.88038 | -0.37909 | 523 ft | 3 kts | 218° |
| 2026-05-07 12:45 | 51.88023 | -0.37928 | 523 ft | 4 kts | 218° |
| 2026-05-07 12:45 | 51.87992 | -0.37968 | 523 ft | 7 kts | 219° |
| 2026-05-07 12:45 | 51.87942 | -0.38010 | 523 ft | 9 kts | 198° |
| 2026-05-07 12:45 | 51.87870 | -0.38008 | 523 ft | 12 kts | 162° |
| 2026-05-07 12:46 | 51.87802 | -0.37920 | 523 ft | 14 kts | 119° |
| 2026-05-07 12:46 | 51.87758 | -0.37772 | 523 ft | 15 kts | 116° |
| 2026-05-07 12:46 | 51.87708 | -0.37595 | 519 ft | 20 kts | 114° |
| 2026-05-07 12:46 | 51.87615 | -0.37454 | 523 ft | 18 kts | 164° |
| 2026-05-07 12:47 | 51.87507 | -0.37512 | 521 ft | 15 kts | 239° |
| 2026-05-07 12:47 | 51.87481 | -0.37658 | 523 ft | 12 kts | 254° |
| 2026-05-07 12:47 | 51.87456 | -0.37814 | 522 ft | 20 kts | 256° |
| 2026-05-07 12:47 | 51.87419 | -0.37996 | 524 ft | 14 kts | 244° |
| 2026-05-07 12:48 | 51.87343 | -0.38088 | 522 ft | 14 kts | 206° |
| 2026-05-07 12:48 | 51.87259 | -0.38116 | 523 ft | 10 kts | 167° |
| 2026-05-07 12:48 | 51.87257 | -0.38039 | 524 ft | 8 kts | 73° |
| 2026-05-07 12:48 | 51.87258 | -0.38034 | 524 ft | 0 kts | 73° |
| 2026-05-07 12:49 | 51.87330 | -0.37621 | 521 ft | 80 kts | 74° |
| 2026-05-07 12:49 | 51.87541 | -0.36381 | 526 ft | 145 kts | 75° |
| 2026-05-07 12:49 | 51.87809 | -0.34832 | 1191 ft | 138 kts | 75° |
| 2026-05-07 12:49 | 51.88089 | -0.33276 | 1725 ft | 149 kts | 76° |
| 2026-05-07 12:50 | 51.88383 | -0.31620 | 2117 ft | 161 kts | 76° |
| 2026-05-07 12:50 | 51.88718 | -0.29725 | 2235 ft | 193 kts | 76° |
| 2026-05-07 12:50 | 51.89189 | -0.27602 | 2561 ft | 217 kts | 58° |
| 2026-05-07 12:50 | 51.90422 | -0.26056 | 2977 ft | 240 kts | 16° |
| 2026-05-07 12:51 | 51.92124 | -0.26123 | 3519 ft | 259 kts | 338° |
| 2026-05-07 12:51 | 51.93545 | -0.27926 | 4267 ft | 267 kts | 301° |
| 2026-05-07 12:51 | 51.94075 | -0.30767 | 5121 ft | 268 kts | 268° |
| 2026-05-07 12:51 | 51.93828 | -0.33755 | 6048 ft | 268 kts | 255° |
| 2026-05-07 12:52 | 51.93390 | -0.36702 | 6984 ft | 270 kts | 255° |
| 2026-05-07 12:52 | 51.93274 | -0.39751 | 7808 ft | 277 kts | 281° |
| 2026-05-07 12:52 | 51.94110 | -0.42581 | 8633 ft | 283 kts | 304° |
| 2026-05-07 12:52 | 51.95378 | -0.45062 | 9497 ft | 288 kts | 312° |
| 2026-05-07 12:53 | 51.96809 | -0.47378 | 10286 ft | 295 kts | 315° |
| 2026-05-07 12:53 | 51.98361 | -0.49752 | 10555 ft | 319 kts | 316° |
| 2026-05-07 12:53 | 52.00011 | -0.52283 | 11067 ft | 331 kts | 315° |
| 2026-05-07 12:53 | 52.01684 | -0.54914 | 11783 ft | 337 kts | 314° |
| 2026-05-07 12:54 | 52.03358 | -0.57616 | 12543 ft | 341 kts | 314° |
| 2026-05-07 12:54 | 52.05031 | -0.60380 | 13299 ft | 345 kts | 313° |
| 2026-05-07 12:54 | 52.06710 | -0.63189 | 14042 ft | 348 kts | 313° |
| 2026-05-07 12:54 | 52.08402 | -0.66036 | 14717 ft | 352 kts | 313° |
| 2026-05-07 12:55 | 52.10108 | -0.68910 | 15392 ft | 355 kts | 313° |
| 2026-05-07 12:55 | 52.11833 | -0.71802 | 16074 ft | 358 kts | 314° |
| 2026-05-07 12:55 | 52.13766 | -0.74377 | 16727 ft | 362 kts | 325° |
| 2026-05-07 12:55 | 52.15927 | -0.76536 | 17386 ft | 366 kts | 327° |
| 2026-05-07 12:56 | 52.18113 | -0.78691 | 18041 ft | 369 kts | 327° |
| 2026-05-07 12:56 | 52.20315 | -0.80866 | 18646 ft | 372 kts | 327° |
| 2026-05-07 12:56 | 52.22540 | -0.83064 | 19201 ft | 375 kts | 327° |
| 2026-05-07 12:56 | 52.24776 | -0.85276 | 19757 ft | 378 kts | 327° |
| 2026-05-07 12:57 | 52.27041 | -0.87516 | 20320 ft | 381 kts | 327° |
| 2026-05-07 12:57 | 52.29320 | -0.89775 | 20882 ft | 385 kts | 327° |
| 2026-05-07 12:57 | 52.31610 | -0.92059 | 21431 ft | 388 kts | 327° |
| 2026-05-07 12:57 | 52.33930 | -0.94376 | 21960 ft | 392 kts | 327° |
| 2026-05-07 12:58 | 52.36265 | -0.96709 | 22501 ft | 395 kts | 327° |
| 2026-05-07 12:58 | 52.38623 | -0.99068 | 23043 ft | 399 kts | 327° |
| 2026-05-07 12:58 | 52.41007 | -1.01449 | 23567 ft | 403 kts | 327° |
| 2026-05-07 12:58 | 52.43404 | -1.03846 | 23994 ft | 406 kts | 327° |
| 2026-05-07 12:59 | 52.45825 | -1.06272 | 24413 ft | 409 kts | 327° |
| 2026-05-07 12:59 | 52.48265 | -1.08720 | 24842 ft | 412 kts | 328° |
| 2026-05-07 12:59 | 52.50718 | -1.11181 | 25247 ft | 415 kts | 328° |
| 2026-05-07 12:59 | 52.53187 | -1.13661 | 25642 ft | 418 kts | 328° |
| 2026-05-07 13:00 | 52.55682 | -1.16172 | 26015 ft | 421 kts | 328° |
| 2026-05-07 13:00 | 52.58183 | -1.18696 | 26400 ft | 424 kts | 328° |
| 2026-05-07 13:00 | 52.60706 | -1.21245 | 26780 ft | 427 kts | 328° |
| 2026-05-07 13:00 | 52.63243 | -1.23810 | 27147 ft | 429 kts | 328° |
| 2026-05-07 13:01 | 52.65800 | -1.26399 | 27516 ft | 432 kts | 328° |
| 2026-05-07 13:01 | 52.68362 | -1.28999 | 27884 ft | 435 kts | 328° |
| 2026-05-07 13:01 | 52.70944 | -1.31621 | 28246 ft | 437 kts | 329° |
| 2026-05-07 13:01 | 52.73542 | -1.34258 | 28624 ft | 440 kts | 329° |
| 2026-05-07 13:02 | 52.76155 | -1.36917 | 28963 ft | 442 kts | 329° |
| 2026-05-07 13:02 | 52.78778 | -1.39593 | 29282 ft | 445 kts | 329° |
| 2026-05-07 13:02 | 52.81422 | -1.42298 | 29609 ft | 448 kts | 329° |
| 2026-05-07 13:02 | 52.84077 | -1.45020 | 29927 ft | 450 kts | 329° |
| 2026-05-07 13:03 | 52.86744 | -1.47756 | 30226 ft | 453 kts | 329° |
| 2026-05-07 13:03 | 52.89422 | -1.50507 | 30483 ft | 455 kts | 329° |
| 2026-05-07 13:03 | 52.92119 | -1.53279 | 30750 ft | 457 kts | 329° |
| 2026-05-07 13:03 | 52.94825 | -1.56061 | 30989 ft | 459 kts | 329° |
| 2026-05-07 13:04 | 52.97550 | -1.58864 | 31231 ft | 462 kts | 329° |
| 2026-05-07 13:04 | 53.00283 | -1.61690 | 31477 ft | 463 kts | 329° |
| 2026-05-07 13:04 | 53.03014 | -1.64521 | 31812 ft | 462 kts | 329° |
| 2026-05-07 13:04 | 53.05808 | -1.67132 | 32160 ft | 460 kts | 336° |
| 2026-05-07 13:05 | 53.08777 | -1.69093 | 32498 ft | 459 kts | 341° |
| 2026-05-07 13:05 | 53.11773 | -1.70927 | 32827 ft | 459 kts | 341° |
| 2026-05-07 13:05 | 53.14763 | -1.72770 | 33170 ft | 458 kts | 341° |
| 2026-05-07 13:05 | 53.17749 | -1.74624 | 33516 ft | 458 kts | 341° |
| 2026-05-07 13:06 | 53.20731 | -1.76485 | 33851 ft | 457 kts | 341° |
| 2026-05-07 13:06 | 53.23708 | -1.78344 | 34032 ft | 456 kts | 341° |
| 2026-05-07 13:06 | 53.29541 | -1.81993 | 34053 ft | 443 kts | 341° |
| 2026-05-07 13:07 | 53.35295 | -1.85592 | 34049 ft | 441 kts | 341° |
| 2026-05-07 13:07 | 53.41046 | -1.89197 | 34053 ft | 441 kts | 341° |
| 2026-05-07 13:08 | 53.46798 | -1.92809 | 34047 ft | 441 kts | 341° |
| 2026-05-07 13:08 | 53.52542 | -1.96435 | 34045 ft | 441 kts | 341° |
| 2026-05-07 13:09 | 53.58282 | -2.00080 | 34043 ft | 441 kts | 341° |
| 2026-05-07 13:09 | 53.63944 | -2.03670 | 34039 ft | 441 kts | 341° |
| 2026-05-07 13:10 | 53.68751 | -2.06725 | 34042 ft | 441 kts | 341° |
| 2026-05-07 13:10 | 53.74488 | -2.10391 | 34033 ft | 441 kts | 340° |
| 2026-05-07 13:11 | 53.80205 | -2.14198 | 34028 ft | 442 kts | 339° |
| 2026-05-07 13:11 | 53.85896 | -2.18139 | 34022 ft | 442 kts | 339° |
| 2026-05-07 13:12 | 53.91593 | -2.22078 | 34026 ft | 442 kts | 339° |
| 2026-05-07 13:12 | 53.97298 | -2.25997 | 34023 ft | 442 kts | 339° |
| 2026-05-07 13:13 | 54.03006 | -2.29924 | 34020 ft | 442 kts | 338° |
| 2026-05-07 13:13 | 54.08710 | -2.33848 | 34020 ft | 443 kts | 338° |
| 2026-05-07 13:14 | 54.14422 | -2.37803 | 34025 ft | 443 kts | 338° |
| 2026-05-07 13:14 | 54.20127 | -2.41771 | 34026 ft | 443 kts | 338° |
| 2026-05-07 13:15 | 54.25827 | -2.45754 | 34026 ft | 442 kts | 338° |
| 2026-05-07 13:15 | 54.31526 | -2.49737 | 34021 ft | 442 kts | 338° |
| 2026-05-07 13:16 | 54.37217 | -2.53725 | 34017 ft | 442 kts | 337° |
| 2026-05-07 13:16 | 54.42895 | -2.57714 | 34015 ft | 442 kts | 337° |
| 2026-05-07 13:17 | 54.48611 | -2.61748 | 33833 ft | 451 kts | 337° |
| 2026-05-07 13:17 | 54.51516 | -2.63803 | 33289 ft | 451 kts | 337° |
| 2026-05-07 13:17 | 54.54406 | -2.65847 | 32690 ft | 447 kts | 336° |
| 2026-05-07 13:18 | 54.57269 | -2.67872 | 32105 ft | 444 kts | 336° |
| 2026-05-07 13:18 | 54.60115 | -2.69888 | 31518 ft | 441 kts | 336° |
| 2026-05-07 13:18 | 54.62944 | -2.71903 | 30941 ft | 438 kts | 336° |
| 2026-05-07 13:18 | 54.65756 | -2.73913 | 30369 ft | 436 kts | 336° |
| 2026-05-07 13:19 | 54.68549 | -2.75911 | 29759 ft | 434 kts | 336° |
| 2026-05-07 13:19 | 54.71328 | -2.77896 | 29195 ft | 429 kts | 336° |
| 2026-05-07 13:19 | 54.74076 | -2.79858 | 28646 ft | 425 kts | 335° |
| 2026-05-07 13:19 | 54.76797 | -2.81802 | 28094 ft | 421 kts | 335° |
| 2026-05-07 13:20 | 54.79494 | -2.83731 | 27568 ft | 417 kts | 335° |
| 2026-05-07 13:20 | 54.82164 | -2.85649 | 27035 ft | 414 kts | 335° |
| 2026-05-07 13:20 | 54.84810 | -2.87554 | 26534 ft | 410 kts | 335° |
| 2026-05-07 13:20 | 54.87434 | -2.89444 | 26035 ft | 407 kts | 335° |
| 2026-05-07 13:21 | 54.90048 | -2.91328 | 25474 ft | 406 kts | 335° |
| 2026-05-07 13:21 | 54.92653 | -2.93207 | 24900 ft | 406 kts | 335° |
| 2026-05-07 13:21 | 54.95263 | -2.95095 | 24334 ft | 406 kts | 335° |
| 2026-05-07 13:21 | 54.97863 | -2.96979 | 23777 ft | 406 kts | 335° |
| 2026-05-07 13:22 | 55.00472 | -2.98875 | 23129 ft | 406 kts | 335° |
| 2026-05-07 13:22 | 55.03071 | -3.00768 | 22582 ft | 404 kts | 335° |
| 2026-05-07 13:22 | 55.05656 | -3.02653 | 22011 ft | 402 kts | 335° |
| 2026-05-07 13:22 | 55.08229 | -3.04531 | 21461 ft | 400 kts | 335° |
| 2026-05-07 13:23 | 55.10796 | -3.06407 | 20883 ft | 399 kts | 335° |
| 2026-05-07 13:23 | 55.13355 | -3.08274 | 20331 ft | 398 kts | 335° |
| 2026-05-07 13:23 | 55.15907 | -3.10137 | 19733 ft | 398 kts | 335° |
| 2026-05-07 13:23 | 55.18454 | -3.11999 | 19307 ft | 393 kts | 335° |
| 2026-05-07 13:24 | 55.20946 | -3.13824 | 18551 ft | 385 kts | 335° |
| 2026-05-07 13:24 | 55.23404 | -3.15630 | 17612 ft | 381 kts | 334° |
| 2026-05-07 13:24 | 55.25832 | -3.17419 | 16750 ft | 375 kts | 334° |
| 2026-05-07 13:24 | 55.28174 | -3.19094 | 16553 ft | 352 kts | 339° |
| 2026-05-07 13:25 | 55.30500 | -3.20007 | 16236 ft | 338 kts | 352° |
| 2026-05-07 13:25 | 55.32838 | -3.19989 | 15641 ft | 334 kts | 3° |
| 2026-05-07 13:25 | 55.35142 | -3.19615 | 15062 ft | 331 kts | 3° |
| 2026-05-07 13:25 | 55.37449 | -3.19244 | 14495 ft | 327 kts | 2° |
| 2026-05-07 13:26 | 55.39681 | -3.18889 | 13948 ft | 325 kts | 2° |
| 2026-05-07 13:26 | 55.41950 | -3.18535 | 13398 ft | 329 kts | 2° |
| 2026-05-07 13:26 | 55.44236 | -3.18179 | 13107 ft | 324 kts | 2° |
| 2026-05-07 13:26 | 55.46452 | -3.17834 | 12721 ft | 323 kts | 2° |
| 2026-05-07 13:27 | 55.48687 | -3.17488 | 12376 ft | 321 kts | 2° |
| 2026-05-07 13:27 | 55.50907 | -3.17143 | 12020 ft | 319 kts | 2° |
| 2026-05-07 13:27 | 55.53113 | -3.16799 | 11648 ft | 317 kts | 2° |
| 2026-05-07 13:27 | 55.55306 | -3.16457 | 11287 ft | 315 kts | 2° |
| 2026-05-07 13:28 | 55.57510 | -3.16107 | 10957 ft | 313 kts | 2° |
| 2026-05-07 13:28 | 55.59671 | -3.15763 | 10604 ft | 311 kts | 2° |
| 2026-05-07 13:28 | 55.61822 | -3.15424 | 10265 ft | 309 kts | 2° |
| 2026-05-07 13:28 | 55.63959 | -3.15087 | 9945 ft | 307 kts | 2° |
| 2026-05-07 13:29 | 55.66076 | -3.14749 | 9550 ft | 305 kts | 2° |
| 2026-05-07 13:29 | 55.68176 | -3.14415 | 9327 ft | 298 kts | 2° |
| 2026-05-07 13:29 | 55.70206 | -3.14093 | 9180 ft | 288 kts | 2° |
| 2026-05-07 13:29 | 55.72175 | -3.13780 | 8908 ft | 283 kts | 2° |
| 2026-05-07 13:30 | 55.74161 | -3.13475 | 8281 ft | 290 kts | 1° |
| 2026-05-07 13:30 | 55.76139 | -3.13179 | 8125 ft | 280 kts | 3° |
| 2026-05-07 13:30 | 55.77965 | -3.12305 | 7910 ft | 275 kts | 24° |
| 2026-05-07 13:30 | 55.79642 | -3.10692 | 7550 ft | 274 kts | 29° |
| 2026-05-07 13:31 | 55.81286 | -3.08986 | 7185 ft | 272 kts | 30° |
| 2026-05-07 13:31 | 55.82915 | -3.07287 | 6819 ft | 271 kts | 30° |
| 2026-05-07 13:31 | 55.84544 | -3.05590 | 6443 ft | 270 kts | 30° |
| 2026-05-07 13:31 | 55.86161 | -3.03914 | 6131 ft | 266 kts | 30° |
| 2026-05-07 13:32 | 55.87738 | -3.02280 | 5910 ft | 260 kts | 30° |
| 2026-05-07 13:32 | 55.89287 | -3.00671 | 5595 ft | 257 kts | 30° |
| 2026-05-07 13:32 | 55.90828 | -2.99075 | 5296 ft | 255 kts | 30° |
| 2026-05-07 13:32 | 55.92360 | -2.97484 | 4993 ft | 255 kts | 30° |
| 2026-05-07 13:33 | 55.93888 | -2.95897 | 4658 ft | 253 kts | 30° |
| 2026-05-07 13:33 | 55.95463 | -2.94544 | 4285 ft | 251 kts | 15° |
| 2026-05-07 13:33 | 55.97149 | -2.93773 | 3917 ft | 250 kts | 10° |
| 2026-05-07 13:33 | 55.98843 | -2.93115 | 3587 ft | 247 kts | 7° |
| 2026-05-07 13:34 | 56.00496 | -2.93174 | 3364 ft | 233 kts | 339° |
| 2026-05-07 13:34 | 56.02768 | -2.96580 | 3002 ft | 211 kts | 288° |
| 2026-05-07 13:34 | 56.03093 | -2.99084 | 3005 ft | 205 kts | 266° |
| 2026-05-07 13:35 | 56.03110 | -3.01644 | 3003 ft | 206 kts | 265° |
| 2026-05-07 13:35 | 56.03127 | -3.04195 | 3005 ft | 205 kts | 265° |
| 2026-05-07 13:35 | 56.03146 | -3.06739 | 3005 ft | 205 kts | 266° |
| 2026-05-07 13:35 | 56.03169 | -3.09281 | 3005 ft | 201 kts | 266° |
| 2026-05-07 13:36 | 56.03186 | -3.11691 | 3001 ft | 188 kts | 262° |
| 2026-05-07 13:36 | 56.02871 | -3.13866 | 2915 ft | 178 kts | 238° |
| 2026-05-07 13:36 | 56.02242 | -3.15759 | 2721 ft | 177 kts | 236° |
| 2026-05-07 13:36 | 56.01609 | -3.17639 | 2497 ft | 177 kts | 236° |
| 2026-05-07 13:37 | 56.00974 | -3.19527 | 2262 ft | 177 kts | 236° |
| 2026-05-07 13:37 | 56.00343 | -3.21404 | 2026 ft | 175 kts | 236° |
| 2026-05-07 13:37 | 55.99729 | -3.23231 | 1794 ft | 167 kts | 235° |
| 2026-05-07 13:37 | 55.99153 | -3.24945 | 1553 ft | 154 kts | 235° |
| 2026-05-07 13:38 | 55.98622 | -3.26524 | 1352 ft | 142 kts | 236° |
| 2026-05-07 13:38 | 55.98125 | -3.27996 | 1170 ft | 136 kts | 236° |
| 2026-05-07 13:38 | 55.97638 | -3.29437 | 974 ft | 134 kts | 236° |
| 2026-05-07 13:38 | 55.97155 | -3.30865 | 791 ft | 134 kts | 234° |
| 2026-05-07 13:39 | 55.96672 | -3.32292 | 579 ft | 136 kts | 236° |
| 2026-05-07 13:39 | 55.96184 | -3.33725 | 416 ft | 134 kts | 236° |
| 2026-05-07 13:39 | 55.95724 | -3.35119 | 247 ft | 135 kts | 237° |
| 2026-05-07 13:39 | 55.95253 | -3.36518 | 110 ft | 126 kts | 237° |
| 2026-05-07 13:40 | 55.94918 | -3.37507 | 112 ft | 60 kts | 237° |
| 2026-05-07 13:40 | 55.94751 | -3.37983 | 113 ft | 22 kts | 240° |
| 2026-05-07 13:40 | 55.94660 | -3.38026 | 114 ft | 15 kts | 150° |
| 2026-05-07 13:40 | 55.94594 | -3.37908 | 114 ft | 14 kts | 86° |
| 2026-05-07 13:41 | 55.94633 | -3.37760 | 114 ft | 13 kts | 58° |
| 2026-05-07 13:41 | 55.94677 | -3.37634 | 114 ft | 11 kts | 60° |
| 2026-05-07 13:41 | 55.94716 | -3.37516 | 114 ft | 11 kts | 59° |
| 2026-05-07 13:41 | 55.94778 | -3.37330 | 114 ft | 21 kts | 58° |
| 2026-05-07 13:42 | 55.94844 | -3.37139 | 116 ft | 15 kts | 59° |
| 2026-05-07 13:42 | 55.94898 | -3.36979 | 114 ft | 14 kts | 59° |
| 2026-05-07 13:42 | 55.94915 | -3.36828 | 116 ft | 12 kts | 128° |
| 2026-05-07 13:42 | 55.94834 | -3.36778 | 116 ft | 13 kts | 180° |
| 2026-05-07 13:43 | 55.94748 | -3.36744 | 114 ft | 13 kts | 161° |
| 2026-05-07 13:43 | 55.94698 | -3.36683 | 114 ft | 8 kts | 82° |
| 2026-05-07 13:43 | 55.94701 | -3.36642 | 115 ft | 3 kts | 89° |
| 2026-05-07 13:43 | 55.94702 | -3.36610 | 116 ft | 0 kts | 86° |
| 2026-05-07 13:44 | 55.94702 | -3.36601 | 116 ft | 0 kts | 87° |